createdAt,value
2022-11-24T00:00:06.566Z,72.31
2022-11-24T00:02:33.039Z,73.35
2022-11-24T00:04:59.658Z,73.72
2022-11-24T00:07:26.297Z,73.44
2022-11-24T00:09:52.761Z,74.06
2022-11-24T00:12:19.162Z,75.19
2022-11-24T00:14:46.971Z,74.55
2022-11-24T00:17:13.518Z,74.63
2022-11-24T00:19:40.062Z,75.12
2022-11-24T00:22:06.456Z,74.49
2022-11-24T00:24:33.240Z,73.40
2022-11-24T00:26:59.823Z,73.39
2022-11-24T00:29:26.365Z,74.16
2022-11-24T00:31:52.822Z,73.68
2022-11-24T00:34:19.411Z,74.28
2022-11-24T00:36:45.816Z,75.53
2022-11-24T00:39:14.378Z,74.84
2022-11-24T00:41:42.193Z,74.32
2022-11-24T00:44:08.999Z,74.71
2022-11-24T00:46:35.972Z,74.66
2022-11-24T00:49:02.937Z,74.28
2022-11-24T00:51:30.330Z,74.17
2022-11-24T00:53:57.657Z,73.99
2022-11-24T00:56:25.499Z,74.33
2022-11-24T00:58:52.234Z,74.28
2022-11-24T01:01:21.992Z,73.79
2022-11-24T01:03:49.345Z,75.28
2022-11-24T01:06:18.936Z,74.73
2022-11-24T01:08:46.225Z,74.90
2022-11-24T01:11:12.654Z,74.78
2022-11-24T01:13:40.154Z,76.56
2022-11-24T01:16:12.762Z,77.75
2022-11-24T01:18:39.435Z,77.50
2022-11-24T01:21:10.114Z,78.11
2022-11-24T01:23:36.855Z,78.08
2022-11-24T01:26:08.080Z,77.45
2022-11-24T01:28:34.784Z,76.49
2022-11-24T01:31:03.677Z,76.15
2022-11-24T01:33:30.389Z,76.31
2022-11-24T01:36:00.566Z,76.22
2022-11-24T01:38:27.622Z,76.08
2022-11-24T01:41:07.854Z,77.12
2022-11-24T01:43:34.966Z,76.94
2022-11-24T01:46:26.763Z,76.30
2022-11-24T01:49:06.181Z,76.84
2022-11-24T01:51:36.205Z,77.56
2022-11-24T01:54:16.009Z,78.50
2022-11-24T01:56:46.260Z,78.46
2022-11-24T01:59:15.742Z,78.46
2022-11-24T02:01:42.287Z,79.77
2022-11-24T02:04:13.265Z,79.05
2022-11-24T02:07:14.311Z,78.08
2022-11-24T02:09:49.140Z,77.35
2022-11-24T02:12:15.563Z,77.71
2022-11-24T02:14:44.057Z,77.10
2022-11-24T02:17:10.645Z,76.77
2022-11-24T02:19:39.861Z,76.00
2022-11-24T02:22:22.809Z,75.53
2022-11-24T02:25:14.378Z,75.28
2022-11-24T02:27:48.200Z,75.57
2022-11-24T02:30:18.887Z,75.25
2022-11-24T02:32:45.361Z,76.10
2022-11-24T02:35:12.640Z,75.43
2022-11-24T02:37:39.107Z,75.38
2022-11-24T02:40:06.525Z,75.48
2022-11-24T02:42:38.571Z,75.36
2022-11-24T02:45:05.599Z,74.52
2022-11-24T02:47:32.033Z,74.62
2022-11-24T02:49:58.425Z,74.93
2022-11-24T02:52:24.840Z,74.93
2022-11-24T02:54:51.311Z,74.94
2022-11-24T02:57:17.772Z,74.87
2022-11-24T02:59:44.613Z,75.32
2022-11-24T03:02:11.018Z,74.57
2022-11-24T03:04:37.470Z,74.76
2022-11-24T03:07:03.951Z,75.19
2022-11-24T03:09:30.491Z,77.07
2022-11-24T03:11:56.902Z,76.29
2022-11-24T03:14:23.379Z,76.16
2022-11-24T03:16:49.777Z,76.18
2022-11-24T03:19:16.182Z,75.73
2022-11-24T03:21:42.651Z,75.14
2022-11-24T03:24:09.078Z,75.12
2022-11-24T03:26:35.873Z,74.98
2022-11-24T03:29:02.477Z,76.23
2022-11-24T03:31:28.992Z,77.07
2022-11-24T03:33:55.387Z,77.70
2022-11-24T03:36:21.800Z,78.07
2022-11-24T03:38:48.274Z,77.03
2022-11-24T03:41:14.708Z,76.39
2022-11-24T03:43:44.086Z,75.87
2022-11-24T03:46:11.898Z,76.62
2022-11-24T03:48:38.879Z,75.75
2022-11-24T03:51:05.455Z,75.98
2022-11-24T03:53:33.536Z,75.78
2022-11-24T03:56:01.932Z,74.81
2022-11-24T03:58:29.601Z,75.10
2022-11-24T04:00:57.020Z,74.89
2022-11-24T04:03:24.541Z,75.20
2022-11-24T04:05:51.656Z,75.90
2022-11-24T04:08:18.243Z,76.40
2022-11-24T04:10:44.789Z,76.48
2022-11-24T04:13:14.208Z,75.59
2022-11-24T04:15:41.717Z,74.87
2022-11-24T04:18:09.907Z,74.98
2022-11-24T04:20:36.909Z,74.48
2022-11-24T04:23:05.061Z,74.55
2022-11-24T04:25:32.430Z,74.35
2022-11-24T04:27:58.933Z,74.43
2022-11-24T04:30:27.359Z,74.67
2022-11-24T04:32:53.913Z,74.61
2022-11-24T04:35:21.198Z,75.43
2022-11-24T04:37:47.719Z,75.10
2022-11-24T04:40:15.125Z,75.57
2022-11-24T04:42:41.782Z,75.59
2022-11-24T04:45:08.932Z,77.15
2022-11-24T04:47:35.482Z,76.61
2022-11-24T04:50:02.080Z,78.30
2022-11-24T04:52:30.435Z,77.22
2022-11-24T04:54:56.818Z,78.08
2022-11-24T04:57:25.625Z,77.03
2022-11-24T04:59:52.952Z,77.37
2022-11-24T05:02:20.305Z,76.32
2022-11-24T05:04:47.210Z,75.58
2022-11-24T05:07:18.740Z,76.41
2022-11-24T05:10:05.845Z,77.88
2022-11-24T05:12:32.525Z,75.87
2022-11-24T05:15:00.732Z,75.78
2022-11-24T05:17:36.129Z,75.62
2022-11-24T05:20:03.762Z,75.47
2022-11-24T05:22:30.230Z,75.06
2022-11-24T05:24:56.661Z,74.35
2022-11-24T05:27:23.718Z,74.31
2022-11-24T05:29:50.188Z,74.59
2022-11-24T05:32:16.780Z,74.33
2022-11-24T05:34:43.278Z,74.95
2022-11-24T05:37:09.717Z,78.36
2022-11-24T05:39:36.691Z,76.77
2022-11-24T05:42:25.025Z,75.42
2022-11-24T05:44:52.179Z,74.95
2022-11-24T05:47:19.531Z,76.44
2022-11-24T05:49:46.033Z,76.95
2022-11-24T05:52:12.682Z,76.41
2022-11-24T05:54:39.164Z,75.94
2022-11-24T05:57:05.631Z,75.87
2022-11-24T05:59:32.178Z,79.01
2022-11-24T06:01:58.782Z,77.56
2022-11-24T06:04:25.389Z,75.94
2022-11-24T06:06:52.170Z,75.03
2022-11-24T06:09:18.624Z,75.92
2022-11-24T06:11:46.755Z,74.97
2022-11-24T06:14:13.142Z,74.44
2022-11-24T06:16:39.583Z,74.17
2022-11-24T06:19:06.070Z,75.57
2022-11-24T06:21:32.497Z,75.04
2022-11-24T06:23:59.128Z,74.63
2022-11-24T06:26:25.634Z,74.26
2022-11-24T06:28:52.071Z,74.33
2022-11-24T06:31:18.702Z,74.64
2022-11-24T06:33:45.262Z,74.94
2022-11-24T06:36:14.353Z,74.08
2022-11-24T06:38:40.864Z,73.78
2022-11-24T06:41:11.938Z,73.38
2022-11-24T06:43:38.582Z,73.52
2022-11-24T06:46:05.189Z,73.17
2022-11-24T06:48:32.133Z,72.89
2022-11-24T06:51:00.597Z,73.57
2022-11-24T06:53:30.231Z,73.68
2022-11-24T06:56:00.577Z,72.92
2022-11-24T06:58:27.013Z,73.17
2022-11-24T07:00:53.960Z,73.45
2022-11-24T07:03:20.560Z,73.58
2022-11-24T07:05:47.146Z,73.50
2022-11-24T07:08:17.808Z,72.57
2022-11-24T07:10:44.648Z,72.93
2022-11-24T07:13:11.099Z,74.00
2022-11-24T07:15:37.640Z,73.40
2022-11-24T07:18:04.556Z,73.19
2022-11-24T07:20:31.368Z,72.90
2022-11-24T07:22:58.374Z,72.72
2022-11-24T07:25:27.692Z,72.73
2022-11-24T07:27:58.868Z,72.60
2022-11-24T07:30:27.003Z,72.74
2022-11-24T07:32:59.321Z,72.00
2022-11-24T07:35:25.799Z,72.23
2022-11-24T07:37:58.576Z,71.94
2022-11-24T07:40:26.639Z,71.20
2022-11-24T07:42:53.898Z,72.30
2022-11-24T07:45:20.632Z,72.00
2022-11-24T07:50:28.525Z,73.00
2022-11-24T07:55:44.054Z,72.60
2022-11-24T07:58:10.499Z,72.61
2022-11-24T08:00:36.917Z,71.80
2022-11-24T08:03:03.402Z,71.87
2022-11-24T08:05:29.891Z,72.23
2022-11-24T08:07:56.451Z,71.61
2022-11-24T08:10:23.245Z,71.75
2022-11-24T08:12:49.629Z,71.33
2022-11-24T08:15:16.157Z,72.50
2022-11-24T08:17:42.561Z,72.39
2022-11-24T08:20:09.826Z,71.80
2022-11-24T08:22:36.428Z,71.67
2022-11-24T08:25:02.935Z,72.07
2022-11-24T08:27:30.082Z,71.68
2022-11-24T08:29:56.483Z,72.14
2022-11-24T08:32:23.130Z,71.49
2022-11-24T08:34:49.667Z,71.71
2022-11-24T08:37:16.121Z,71.05
2022-11-24T08:39:42.582Z,70.95
2022-11-24T08:42:09.124Z,71.28
2022-11-24T08:44:35.979Z,71.76
2022-11-24T08:47:02.876Z,71.93
2022-11-24T08:49:29.490Z,72.24
2022-11-24T08:51:57.853Z,73.77
2022-11-24T08:54:25.621Z,72.24
2022-11-24T08:56:52.063Z,71.80
2022-11-24T08:59:18.624Z,71.65
2022-11-24T09:01:45.126Z,71.14
2022-11-24T09:04:11.646Z,70.84
2022-11-24T09:06:38.158Z,70.50
2022-11-24T09:09:04.561Z,70.65
2022-11-24T09:11:34.150Z,70.75
2022-11-24T09:14:01.159Z,70.60
2022-11-24T09:16:29.156Z,70.35
2022-11-24T09:19:01.503Z,69.05
2022-11-24T09:21:29.364Z,68.65
2022-11-24T09:23:56.227Z,69.37
2022-11-24T09:26:28.322Z,70.91
2022-11-24T09:28:56.058Z,70.33
2022-11-24T09:31:25.536Z,69.72
2022-11-24T09:33:52.721Z,69.55
2022-11-24T09:36:20.376Z,71.55
2022-11-24T09:38:47.240Z,70.67
2022-11-24T09:41:33.640Z,70.17
2022-11-24T09:46:40.574Z,69.17
2022-11-24T09:49:16.557Z,69.25
2022-11-24T09:51:46.267Z,69.70
2022-11-24T10:05:18.743Z,68.72
2022-11-24T10:08:16.449Z,68.43
2022-11-24T10:10:57.124Z,68.61
2022-11-24T10:13:46.688Z,69.76
2022-11-24T10:16:22.160Z,67.99
2022-11-24T10:19:00.779Z,67.30
2022-11-24T10:22:04.989Z,66.75
2022-11-24T10:25:13.586Z,66.94
2022-11-24T10:27:44.174Z,65.85
2022-11-24T10:30:15.442Z,65.44
2022-11-24T10:32:47.708Z,65.66
2022-11-24T10:38:06.877Z,65.13
2022-11-24T10:43:11.414Z,63.66
2022-11-24T10:45:39.446Z,62.64
2022-11-24T10:48:27.425Z,62.61
2022-11-24T10:51:06.345Z,62.25
2022-11-24T10:56:14.425Z,60.69
2022-11-24T10:58:40.915Z,64.14
2022-11-24T11:01:13.642Z,62.47
2022-11-24T11:03:48.883Z,62.86
2022-11-24T11:06:25.209Z,63.10
2022-11-24T11:09:17.700Z,64.12
2022-11-24T11:17:30.503Z,66.34
2022-11-24T11:20:03.091Z,65.92
2022-11-24T11:22:37.204Z,65.20
2022-11-24T11:25:03.645Z,63.88
2022-11-24T11:27:30.404Z,63.91
2022-11-24T11:35:50.816Z,63.85
2022-11-24T11:38:17.711Z,65.79
2022-11-24T11:40:44.434Z,65.48
2022-11-24T11:43:27.103Z,65.05
2022-11-24T11:46:03.809Z,67.08
2022-11-24T11:48:43.030Z,65.25
2022-11-24T11:51:25.559Z,65.12
2022-11-24T11:54:23.056Z,64.89
2022-11-24T11:57:01.315Z,66.13
2022-11-24T11:59:38.029Z,65.49
2022-11-24T12:02:22.860Z,66.55
2022-11-24T12:04:59.080Z,67.40
2022-11-24T12:07:46.212Z,67.35
2022-11-24T12:10:41.998Z,66.32
2022-11-24T12:13:38.144Z,67.00
2022-11-24T12:16:34.337Z,66.10
2022-11-24T12:19:46.459Z,65.96
2022-11-24T12:22:18.607Z,68.06
2022-11-24T12:24:56.577Z,68.65
2022-11-24T12:28:01.893Z,69.34
2022-11-24T12:30:40.415Z,69.07
2022-11-24T12:33:26.916Z,70.35
2022-11-24T12:36:04.408Z,69.92
2022-11-24T12:38:49.246Z,69.35
2022-11-24T12:43:59.727Z,68.03
2022-11-24T12:46:38.381Z,68.03
2022-11-24T12:49:31.594Z,66.82
2022-11-24T12:52:24.418Z,67.30
2022-11-24T12:54:51.031Z,66.39
2022-11-24T12:57:28.652Z,66.82
2022-11-24T13:00:14.314Z,65.94
2022-11-24T13:13:59.653Z,66.83
2022-11-24T13:16:59.520Z,66.70
2022-11-24T13:19:17.447Z,65.76
2022-11-24T13:27:27.627Z,65.46
2022-11-24T13:35:15.606Z,65.00
2022-11-24T13:43:02.491Z,66.11
2022-11-24T13:48:21.909Z,66.79
2022-11-24T13:50:56.098Z,67.08
2022-11-24T13:53:34.698Z,66.81
2022-11-24T13:58:51.248Z,69.00
2022-11-24T14:06:55.036Z,67.98
2022-11-24T14:14:56.986Z,69.67
2022-11-24T14:17:27.539Z,67.48
2022-11-24T14:19:58.307Z,68.13
2022-11-24T14:22:41.228Z,67.10
2022-11-24T14:30:31.597Z,69.66
2022-11-24T14:35:44.651Z,68.81
2022-11-24T14:40:54.390Z,67.69
2022-11-24T14:45:58.384Z,67.43
2022-11-24T14:48:28.064Z,67.65
2022-11-24T14:51:16.104Z,68.29
2022-11-24T14:53:49.004Z,67.89
2022-11-24T14:56:30.251Z,68.30
2022-11-24T14:58:57.860Z,67.98
2022-11-24T15:01:27.081Z,68.54
2022-11-24T15:07:01.092Z,68.52
2022-11-24T15:09:39.519Z,68.48
2022-11-24T15:12:08.686Z,68.28
2022-11-24T15:14:58.065Z,69.28
2022-11-24T15:17:28.077Z,69.37
2022-11-24T15:20:03.100Z,69.96
2022-11-24T15:22:29.476Z,69.50
2022-11-24T15:24:55.919Z,68.83
2022-11-24T15:27:22.320Z,68.41
2022-11-24T15:29:49.522Z,68.69
2022-11-24T15:32:16.492Z,69.69
2022-11-24T15:34:43.072Z,69.68
2022-11-24T15:37:09.506Z,68.78
2022-11-24T15:39:36.017Z,68.65
2022-11-24T15:42:02.500Z,68.80
2022-11-24T15:44:29.533Z,69.84
2022-11-24T15:46:56.044Z,70.64
2022-11-24T15:49:22.463Z,71.64
2022-11-24T15:51:48.925Z,71.70
2022-11-24T15:54:18.398Z,73.91
2022-11-24T15:56:44.868Z,72.86
2022-11-24T18:01:05.566Z,71.96
2022-11-24T18:03:32.781Z,72.36
2022-11-24T18:06:12.250Z,71.47
2022-11-24T18:08:43.686Z,70.66
2022-11-24T18:11:24.650Z,70.82
2022-11-24T18:14:00.146Z,71.49
2022-11-24T18:16:30.568Z,70.74
2022-11-24T18:19:14.935Z,70.82
2022-11-24T18:21:44.964Z,70.56
2022-11-24T18:24:19.667Z,70.90
2022-11-24T18:26:51.173Z,71.76
2022-11-24T18:32:01.499Z,73.81
2022-11-24T18:34:31.828Z,72.94
2022-11-24T18:37:07.801Z,71.82
2022-11-24T18:39:38.060Z,73.60
2022-11-24T18:42:04.813Z,73.34
2022-11-24T18:44:33.287Z,72.04
2022-11-24T18:47:00.029Z,71.88
2022-11-24T18:49:26.540Z,72.17
2022-11-24T18:51:53.005Z,72.14
2022-11-24T18:54:19.560Z,71.69
2022-11-24T18:56:45.965Z,71.80
2022-11-24T18:59:12.428Z,71.65
2022-11-24T19:01:38.989Z,71.55
2022-11-24T19:04:05.696Z,71.79
2022-11-24T19:06:35.125Z,71.84
2022-11-24T19:09:05.512Z,73.25
2022-11-24T19:11:35.551Z,73.00
2022-11-24T19:14:06.953Z,72.82
2022-11-24T19:16:34.355Z,72.26
2022-11-24T19:19:02.557Z,71.83
2022-11-24T19:21:34.512Z,72.08
2022-11-24T19:24:05.471Z,72.40
2022-11-24T19:26:33.155Z,72.74
2022-11-24T19:29:00.879Z,71.94
2022-11-24T19:31:27.463Z,71.90
2022-11-24T19:33:54.682Z,72.43
2022-11-24T19:36:22.779Z,72.48
2022-11-24T19:38:51.349Z,72.53
2022-11-24T19:41:21.410Z,71.98
2022-11-24T19:43:48.426Z,72.75
2022-11-24T19:46:17.576Z,72.81
2022-11-24T19:48:46.258Z,72.38
2022-11-24T19:51:15.932Z,72.01
2022-11-24T19:53:43.434Z,71.61
2022-11-24T19:56:15.427Z,72.69
2022-11-24T19:58:42.663Z,71.99
2022-11-24T20:01:17.736Z,71.88
2022-11-24T20:03:45.626Z,72.74
2022-11-24T20:06:14.037Z,71.94
2022-11-24T20:08:42.284Z,72.95
2022-11-24T20:11:11.458Z,73.21
2022-11-24T20:13:40.561Z,72.55
2022-11-24T20:16:10.940Z,72.18
2022-11-24T20:18:46.596Z,71.84
2022-11-24T20:21:16.129Z,73.32
2022-11-24T20:23:43.610Z,73.21
2022-11-24T20:26:15.478Z,73.05
2022-11-24T20:28:42.192Z,72.90
2022-11-24T20:31:11.810Z,73.21
2022-11-24T20:33:39.108Z,73.35
2022-11-24T20:36:08.427Z,72.69
2022-11-24T20:38:36.638Z,72.70
2022-11-24T20:41:09.873Z,73.03
2022-11-24T20:43:37.663Z,73.00
2022-11-24T20:46:06.063Z,73.46
2022-11-24T20:48:33.569Z,73.06
2022-11-24T20:51:05.328Z,73.45
2022-11-24T20:53:31.803Z,74.27
2022-11-24T20:56:06.624Z,73.19
2022-11-24T20:58:34.808Z,73.06
2022-11-24T21:01:18.409Z,73.94
2022-11-24T21:03:46.367Z,73.98
2022-11-24T21:06:14.152Z,73.66
2022-11-24T21:08:42.038Z,75.09
2022-11-24T21:11:13.926Z,74.13
2022-11-24T21:13:44.332Z,73.91
2022-11-24T21:16:17.811Z,73.93
2022-11-24T21:18:45.838Z,74.14
2022-11-24T21:21:13.349Z,73.32
2022-11-24T21:23:40.139Z,74.34
2022-11-24T21:26:13.147Z,74.42
2022-11-24T21:28:42.808Z,74.84
2022-11-24T21:31:12.525Z,75.07
2022-11-24T21:33:45.413Z,75.85
2022-11-24T21:36:14.692Z,79.35
2022-11-24T21:38:42.769Z,76.81
2022-11-24T21:41:11.258Z,76.83
2022-11-24T21:43:38.578Z,77.11
2022-11-24T21:46:07.616Z,76.38
2022-11-24T21:48:35.704Z,77.43
2022-11-24T21:51:07.173Z,77.90
2022-11-24T21:53:36.380Z,77.21
2022-11-24T21:56:05.891Z,76.61
2022-11-24T21:58:33.621Z,76.81
2022-11-24T22:01:10.424Z,76.56
2022-11-24T22:03:36.986Z,76.57
2022-11-24T22:06:03.768Z,78.10
2022-11-24T22:08:31.643Z,76.92
2022-11-24T22:11:03.884Z,76.70
2022-11-24T22:13:30.582Z,77.47
2022-11-24T22:16:01.880Z,75.89
2022-11-24T22:18:33.366Z,76.11
2022-11-24T22:21:00.519Z,76.09
2022-11-24T22:23:27.048Z,76.80
2022-11-24T22:25:53.519Z,77.54
2022-11-24T22:28:19.950Z,76.21
2022-11-24T22:30:46.545Z,75.73
2022-11-24T22:33:13.812Z,75.22
2022-11-24T22:35:40.272Z,74.59
2022-11-24T22:38:06.765Z,74.29
2022-11-24T22:40:33.350Z,74.82
2022-11-24T22:42:59.948Z,74.77
2022-11-24T22:45:26.499Z,74.44
2022-11-24T22:47:56.213Z,74.12
2022-11-24T22:50:22.655Z,73.73
2022-11-24T22:52:50.022Z,73.68
2022-11-24T22:55:16.500Z,73.52
2022-11-24T22:57:47.398Z,72.80
2022-11-24T23:00:18.258Z,73.38
2022-11-24T23:02:44.965Z,73.46
2022-11-24T23:05:11.507Z,73.39
2022-11-24T23:07:38.033Z,73.10
2022-11-24T23:10:04.694Z,72.77
2022-11-24T23:12:31.140Z,72.98
2022-11-24T23:14:57.587Z,72.81
2022-11-24T23:17:24.392Z,72.35
2022-11-24T23:19:50.863Z,72.29
2022-11-24T23:22:17.301Z,72.72
2022-11-24T23:24:43.757Z,72.26
2022-11-24T23:27:10.255Z,72.64
2022-11-24T23:29:36.753Z,72.34
2022-11-24T23:32:03.334Z,72.96
2022-11-24T23:34:29.829Z,72.68
2022-11-24T23:36:56.418Z,72.30
2022-11-24T23:39:23.397Z,72.08
2022-11-24T23:41:49.792Z,74.04
2022-11-24T23:44:16.219Z,73.83
2022-11-24T23:46:42.630Z,73.09
2022-11-24T23:49:09.074Z,73.02
2022-11-24T23:51:35.569Z,75.22
2022-11-24T23:54:02.011Z,75.46
2022-11-24T23:56:33.074Z,74.32
2022-11-24T23:59:00.916Z,74.98
